sensor_id;sensor_type;location;lat;lon;timestamp;temperature;humidity
26743;DHT22;14341;51.256;22.478;2023-03-01T00:00:40;-3.80;99.90
26743;DHT22;14341;51.256;22.478;2023-03-01T00:03:48;-4.40;99.90
26743;DHT22;14341;51.256;22.478;2023-03-01T00:06:52;-4.30;99.90
26743;DHT22;14341;51.256;22.478;2023-03-01T00:09:58;-4.20;99.90
26743;DHT22;14341;51.256;22.478;2023-03-01T00:13:03;-4.20;99.90
26743;DHT22;14341;51.256;22.478;2023-03-01T00:16:09;-2.90;99.90
26743;DHT22;14341;51.256;22.478;2023-03-01T00:19:16;-3.30;99.90
26743;DHT22;14341;51.256;22.478;2023-03-01T00:22:20;-3.90;99.90
26743;DHT22;14341;51.256;22.478;2023-03-01T00:25:25;-4.10;99.90
26743;DHT22;14341;51.256;22.478;2023-03-01T00:28:28;-4.20;99.90
26743;DHT22;14341;51.256;22.478;2023-03-01T00:31:32;-3.50;99.90
26743;DHT22;14341;51.256;22.478;2023-03-01T00:34:36;-4.20;99.90
26743;DHT22;14341;51.256;22.478;2023-03-01T00:37:39;-3.40;99.90
26743;DHT22;14341;51.256;22.478;2023-03-01T00:40:44;-2.60;99.90
26743;DHT22;14341;51.256;22.478;2023-03-01T00:43:47;-3.80;99.90
26743;DHT22;14341;51.256;22.478;2023-03-01T00:46:51;-3.80;99.90
26743;DHT22;14341;51.256;22.478;2023-03-01T00:49:54;-3.20;99.90
26743;DHT22;14341;51.256;22.478;2023-03-01T00:52:57;-3.70;99.90
26743;DHT22;14341;51.256;22.478;2023-03-01T00:56:03;-3.60;99.90
26743;DHT22;14341;51.256;22.478;2023-03-01T00:59:06;-3.50;99.90
26743;DHT22;14341;51.256;22.478;2023-03-01T01:02:10;-3.70;99.90
26743;DHT22;14341;51.256;22.478;2023-03-01T01:05:13;-3.90;99.90
26743;DHT22;14341;51.256;22.478;2023-03-01T01:08:17;-3.60;99.90
26743;DHT22;14341;51.256;22.478;2023-03-01T01:11:24;-4.00;99.90
26743;DHT22;14341;51.256;22.478;2023-03-01T01:14:27;-3.40;99.90
26743;DHT22;14341;51.256;22.478;2023-03-01T01:17:30;-4.30;99.90
26743;DHT22;14341;51.256;22.478;2023-03-01T01:20:35;-4.30;99.90
26743;DHT22;14341;51.256;22.478;2023-03-01T01:23:39;-4.10;99.90
26743;DHT22;14341;51.256;22.478;2023-03-01T01:26:44;-4.00;99.90
26743;DHT22;14341;51.256;22.478;2023-03-01T01:29:48;-3.90;99.90
26743;DHT22;14341;51.256;22.478;2023-03-01T01:32:51;-3.90;99.90
26743;DHT22;14341;51.256;22.478;2023-03-01T01:35:54;-4.10;99.90
26743;DHT22;14341;51.256;22.478;2023-03-01T01:38:57;-4.30;99.90
26743;DHT22;14341;51.256;22.478;2023-03-01T01:42:02;-4.50;99.90
26743;DHT22;14341;51.256;22.478;2023-03-01T01:45:33;-3.90;99.90
26743;DHT22;14341;51.256;22.478;2023-03-01T01:48:40;-3.40;99.90
26743;DHT22;14341;51.256;22.478;2023-03-01T01:51:47;-4.40;99.90
26743;DHT22;14341;51.256;22.478;2023-03-01T01:54:56;-3.40;99.90
26743;DHT22;14341;51.256;22.478;2023-03-01T01:58:03;-3.10;99.90
26743;DHT22;14341;51.256;22.478;2023-03-01T02:01:07;-4.10;99.90
26743;DHT22;14341;51.256;22.478;2023-03-01T02:04:11;-4.30;99.90
26743;DHT22;14341;51.256;22.478;2023-03-01T02:07:16;-4.50;99.90
26743;DHT22;14341;51.256;22.478;2023-03-01T02:10:20;-4.50;99.90
26743;DHT22;14341;51.256;22.478;2023-03-01T02:13:25;-4.20;99.90
26743;DHT22;14341;51.256;22.478;2023-03-01T02:16:29;-4.20;99.90
26743;DHT22;14341;51.256;22.478;2023-03-01T02:19:43;-4.10;99.90
26743;DHT22;14341;51.256;22.478;2023-03-01T02:22:52;-4.10;99.90
26743;DHT22;14341;51.256;22.478;2023-03-01T02:26:01;-4.00;99.90
26743;DHT22;14341;51.256;22.478;2023-03-01T02:29:08;-3.90;99.90
26743;DHT22;14341;51.256;22.478;2023-03-01T02:32:12;-3.70;99.90
26743;DHT22;14341;51.256;22.478;2023-03-01T02:35:18;-3.10;99.90
26743;DHT22;14341;51.256;22.478;2023-03-01T02:38:23;-3.80;99.90
26743;DHT22;14341;51.256;22.478;2023-03-01T02:41:28;-4.00;99.90
26743;DHT22;14341;51.256;22.478;2023-03-01T02:44:35;-4.20;99.90
26743;DHT22;14341;51.256;22.478;2023-03-01T02:47:38;-4.50;99.90
26743;DHT22;14341;51.256;22.478;2023-03-01T02:50:52;-4.50;99.90
26743;DHT22;14341;51.256;22.478;2023-03-01T02:54:08;-3.30;99.90
26743;DHT22;14341;51.256;22.478;2023-03-01T02:57:14;-4.30;99.90
26743;DHT22;14341;51.256;22.478;2023-03-01T03:03:56;-4.20;99.90
26743;DHT22;14341;51.256;22.478;2023-03-01T03:06:59;-4.30;99.90
26743;DHT22;14341;51.256;22.478;2023-03-01T03:10:05;-4.50;99.90
26743;DHT22;14341;51.256;22.478;2023-03-01T03:13:10;-4.50;99.90
26743;DHT22;14341;51.256;22.478;2023-03-01T03:16:13;-4.30;99.90
26743;DHT22;14341;51.256;22.478;2023-03-01T03:19:19;-4.20;99.90
26743;DHT22;14341;51.256;22.478;2023-03-01T03:22:22;-3.10;99.90
26743;DHT22;14341;51.256;22.478;2023-03-01T03:25:26;-4.00;99.90
26743;DHT22;14341;51.256;22.478;2023-03-01T03:28:30;-4.00;99.90
26743;DHT22;14341;51.256;22.478;2023-03-01T03:31:33;-3.90;99.90
26743;DHT22;14341;51.256;22.478;2023-03-01T03:34:38;-3.80;99.90
26743;DHT22;14341;51.256;22.478;2023-03-01T03:37:42;-3.80;99.90
26743;DHT22;14341;51.256;22.478;2023-03-01T03:41:04;-3.70;99.90
26743;DHT22;14341;51.256;22.478;2023-03-01T03:44:09;-3.70;99.90
26743;DHT22;14341;51.256;22.478;2023-03-01T03:47:12;-3.70;99.90
26743;DHT22;14341;51.256;22.478;2023-03-01T03:50:18;-3.70;99.90
26743;DHT22;14341;51.256;22.478;2023-03-01T03:53:22;-3.70;99.90
26743;DHT22;14341;51.256;22.478;2023-03-01T03:56:26;-3.60;99.90
26743;DHT22;14341;51.256;22.478;2023-03-01T03:59:29;-3.60;99.90
26743;DHT22;14341;51.256;22.478;2023-03-01T04:02:33;-3.70;99.90
26743;DHT22;14341;51.256;22.478;2023-03-01T04:05:39;-2.60;99.90
26743;DHT22;14341;51.256;22.478;2023-03-01T04:08:43;-2.80;99.90
26743;DHT22;14341;51.256;22.478;2023-03-01T04:11:46;-3.70;99.90
26743;DHT22;14341;51.256;22.478;2023-03-01T04:14:49;-3.70;99.90
26743;DHT22;14341;51.256;22.478;2023-03-01T04:17:53;-3.70;99.90
26743;DHT22;14341;51.256;22.478;2023-03-01T04:20:57;-3.70;99.90
26743;DHT22;14341;51.256;22.478;2023-03-01T04:24:01;-3.50;99.90
26743;DHT22;14341;51.256;22.478;2023-03-01T04:27:05;-3.70;99.90
26743;DHT22;14341;51.256;22.478;2023-03-01T04:30:09;-3.60;99.90
26743;DHT22;14341;51.256;22.478;2023-03-01T04:33:13;-3.70;99.90
26743;DHT22;14341;51.256;22.478;2023-03-01T04:36:19;-3.70;99.90
26743;DHT22;14341;51.256;22.478;2023-03-01T04:39:22;-3.60;99.90
26743;DHT22;14341;51.256;22.478;2023-03-01T04:42:25;-3.60;99.90
26743;DHT22;14341;51.256;22.478;2023-03-01T04:45:29;-3.60;99.90
26743;DHT22;14341;51.256;22.478;2023-03-01T04:48:32;-3.60;99.90
26743;DHT22;14341;51.256;22.478;2023-03-01T04:51:37;-3.60;99.90
26743;DHT22;14341;51.256;22.478;2023-03-01T04:54:40;-3.20;99.90
26743;DHT22;14341;51.256;22.478;2023-03-01T04:57:44;-3.60;99.90
26743;DHT22;14341;51.256;22.478;2023-03-01T05:00:47;-3.50;99.90
26743;DHT22;14341;51.256;22.478;2023-03-01T05:03:51;-3.60;99.90
26743;DHT22;14341;51.256;22.478;2023-03-01T05:06:56;-3.60;99.90
26743;DHT22;14341;51.256;22.478;2023-03-01T05:10:00;-3.60;99.90
26743;DHT22;14341;51.256;22.478;2023-03-01T05:13:04;-3.00;99.90
26743;DHT22;14341;51.256;22.478;2023-03-01T05:16:09;-3.70;99.90
26743;DHT22;14341;51.256;22.478;2023-03-01T05:19:13;-3.60;99.90
26743;DHT22;14341;51.256;22.478;2023-03-01T05:22:19;-3.70;99.90
26743;DHT22;14341;51.256;22.478;2023-03-01T05:25:22;-3.60;99.90
26743;DHT22;14341;51.256;22.478;2023-03-01T05:28:26;-3.60;99.90
26743;DHT22;14341;51.256;22.478;2023-03-01T05:31:29;-3.60;99.90
26743;DHT22;14341;51.256;22.478;2023-03-01T05:34:35;-2.10;99.90
26743;DHT22;14341;51.256;22.478;2023-03-01T05:37:40;-2.90;99.90
26743;DHT22;14341;51.256;22.478;2023-03-01T05:40:46;-2.40;99.90
26743;DHT22;14341;51.256;22.478;2023-03-01T05:43:49;-3.30;99.90
26743;DHT22;14341;51.256;22.478;2023-03-01T05:46:53;-3.30;99.90
26743;DHT22;14341;51.256;22.478;2023-03-01T05:49:56;-3.20;99.90
26743;DHT22;14341;51.256;22.478;2023-03-01T05:53:02;-3.10;99.90
26743;DHT22;14341;51.256;22.478;2023-03-01T05:56:07;-3.10;99.90
26743;DHT22;14341;51.256;22.478;2023-03-01T05:59:11;-2.90;99.90
26743;DHT22;14341;51.256;22.478;2023-03-01T06:02:15;-2.90;99.90
26743;DHT22;14341;51.256;22.478;2023-03-01T06:05:19;-2.80;99.90
26743;DHT22;14341;51.256;22.478;2023-03-01T06:08:24;-2.70;99.90
26743;DHT22;14341;51.256;22.478;2023-03-01T06:11:29;-2.70;99.90
26743;DHT22;14341;51.256;22.478;2023-03-01T06:14:32;-2.30;99.90
26743;DHT22;14341;51.256;22.478;2023-03-01T06:17:37;-2.60;99.90
26743;DHT22;14341;51.256;22.478;2023-03-01T06:20:40;-2.60;99.90
26743;DHT22;14341;51.256;22.478;2023-03-01T06:23:45;-2.50;99.90
26743;DHT22;14341;51.256;22.478;2023-03-01T06:26:48;-2.40;99.90
26743;DHT22;14341;51.256;22.478;2023-03-01T06:29:51;-2.40;99.90
26743;DHT22;14341;51.256;22.478;2023-03-01T06:32:56;-2.30;99.90
26743;DHT22;14341;51.256;22.478;2023-03-01T06:36:03;-2.20;99.90
26743;DHT22;14341;51.256;22.478;2023-03-01T06:39:08;-2.20;99.90
26743;DHT22;14341;51.256;22.478;2023-03-01T06:42:11;-2.00;99.90
26743;DHT22;14341;51.256;22.478;2023-03-01T06:45:16;-1.80;99.90
26743;DHT22;14341;51.256;22.478;2023-03-01T06:48:19;-1.80;99.90
26743;DHT22;14341;51.256;22.478;2023-03-01T06:51:23;-1.70;99.90
26743;DHT22;14341;51.256;22.478;2023-03-01T06:54:28;-0.60;99.90
26743;DHT22;14341;51.256;22.478;2023-03-01T06:57:31;-1.10;99.90
26743;DHT22;14341;51.256;22.478;2023-03-01T07:00:34;-1.20;99.90
26743;DHT22;14341;51.256;22.478;2023-03-01T07:03:38;-0.40;99.90
26743;DHT22;14341;51.256;22.478;2023-03-01T07:06:41;-1.10;99.90
26743;DHT22;14341;51.256;22.478;2023-03-01T07:09:46;-1.00;99.90
26743;DHT22;14341;51.256;22.478;2023-03-01T07:12:49;-0.30;99.90
26743;DHT22;14341;51.256;22.478;2023-03-01T07:15:52;-0.90;99.90
26743;DHT22;14341;51.256;22.478;2023-03-01T07:18:56;-0.80;99.90
26743;DHT22;14341;51.256;22.478;2023-03-01T07:22:00;-0.70;99.80
26743;DHT22;14341;51.256;22.478;2023-03-01T07:25:05;-0.70;97.20
26743;DHT22;14341;51.256;22.478;2023-03-01T07:28:09;-0.70;98.80
26743;DHT22;14341;51.256;22.478;2023-03-01T07:31:12;-0.60;94.80
26743;DHT22;14341;51.256;22.478;2023-03-01T07:34:15;-0.50;95.60
26743;DHT22;14341;51.256;22.478;2023-03-01T07:37:18;-0.40;94.10
26743;DHT22;14341;51.256;22.478;2023-03-01T07:40:23;-0.40;94.90
26743;DHT22;14341;51.256;22.478;2023-03-01T07:43:27;-0.20;93.60
26743;DHT22;14341;51.256;22.478;2023-03-01T07:46:30;-0.20;90.40
26743;DHT22;14341;51.256;22.478;2023-03-01T07:49:34;-0.10;92.00
26743;DHT22;14341;51.256;22.478;2023-03-01T07:52:37;0.00;91.20
26743;DHT22;14341;51.256;22.478;2023-03-01T07:55:42;0.00;90.70
26743;DHT22;14341;51.256;22.478;2023-03-01T07:58:45;0.10;91.60
26743;DHT22;14341;51.256;22.478;2023-03-01T08:01:51;0.30;87.00
26743;DHT22;14341;51.256;22.478;2023-03-01T08:04:55;0.30;89.20
26743;DHT22;14341;51.256;22.478;2023-03-01T08:07:58;0.30;90.00
26743;DHT22;14341;51.256;22.478;2023-03-01T08:11:04;0.40;84.50
26743;DHT22;14341;51.256;22.478;2023-03-01T08:14:08;0.40;87.60
26743;DHT22;14341;51.256;22.478;2023-03-01T08:17:13;0.60;85.00
26743;DHT22;14341;51.256;22.478;2023-03-01T08:20:17;0.60;82.60
26743;DHT22;14341;51.256;22.478;2023-03-01T08:23:20;0.70;82.00
26743;DHT22;14341;51.256;22.478;2023-03-01T08:26:25;0.80;78.00
26743;DHT22;14341;51.256;22.478;2023-03-01T08:29:30;0.90;68.60
26743;DHT22;14341;51.256;22.478;2023-03-01T08:32:36;1.00;61.90
26743;DHT22;14341;51.256;22.478;2023-03-01T08:35:40;1.20;67.50
26743;DHT22;14341;51.256;22.478;2023-03-01T08:38:43;1.40;67.20
26743;DHT22;14341;51.256;22.478;2023-03-01T08:41:49;1.50;66.20
26743;DHT22;14341;51.256;22.478;2023-03-01T08:44:52;1.60;49.80
26743;DHT22;14341;51.256;22.478;2023-03-01T08:47:55;1.60;48.20
26743;DHT22;14341;51.256;22.478;2023-03-01T08:51:07;1.70;38.10
26743;DHT22;14341;51.256;22.478;2023-03-01T08:54:12;1.80;34.30
26743;DHT22;14341;51.256;22.478;2023-03-01T08:57:18;2.00;32.30
26743;DHT22;14341;51.256;22.478;2023-03-01T09:00:22;2.10;23.00
26743;DHT22;14341;51.256;22.478;2023-03-01T09:03:25;2.10;17.60
26743;DHT22;14341;51.256;22.478;2023-03-01T09:06:30;2.20;17.30
26743;DHT22;14341;51.256;22.478;2023-03-01T09:09:35;2.10;29.30
26743;DHT22;14341;51.256;22.478;2023-03-01T09:12:40;2.30;27.50
26743;DHT22;14341;51.256;22.478;2023-03-01T09:15:43;2.40;25.50
26743;DHT22;14341;51.256;22.478;2023-03-01T09:18:49;2.50;17.70
26743;DHT22;14341;51.256;22.478;2023-03-01T09:21:53;2.70;19.10
26743;DHT22;14341;51.256;22.478;2023-03-01T09:24:57;2.70;9.50
26743;DHT22;14341;51.256;22.478;2023-03-01T09:28:02;2.80;1.00
26743;DHT22;14341;51.256;22.478;2023-03-01T09:31:05;2.70;1.00
26743;DHT22;14341;51.256;22.478;2023-03-01T09:34:09;2.60;1.00
26743;DHT22;14341;51.256;22.478;2023-03-01T09:37:12;2.70;1.00
26743;DHT22;14341;51.256;22.478;2023-03-01T09:40:19;2.80;1.00
26743;DHT22;14341;51.256;22.478;2023-03-01T09:43:28;2.90;1.00
26743;DHT22;14341;51.256;22.478;2023-03-01T09:46:40;2.90;1.00
26743;DHT22;14341;51.256;22.478;2023-03-01T09:49:45;2.90;1.00
26743;DHT22;14341;51.256;22.478;2023-03-01T09:52:54;3.10;1.00
26743;DHT22;14341;51.256;22.478;2023-03-01T09:56:05;3.20;1.00
26743;DHT22;14341;51.256;22.478;2023-03-01T09:59:19;3.30;1.00
26743;DHT22;14341;51.256;22.478;2023-03-01T10:02:28;3.40;1.00
26743;DHT22;14341;51.256;22.478;2023-03-01T10:05:39;3.40;1.00
26743;DHT22;14341;51.256;22.478;2023-03-01T10:08:50;3.30;1.00
26743;DHT22;14341;51.256;22.478;2023-03-01T10:11:55;3.50;1.00
26743;DHT22;14341;51.256;22.478;2023-03-01T10:15:05;3.60;1.00
26743;DHT22;14341;51.256;22.478;2023-03-01T10:18:16;3.60;1.00
26743;DHT22;14341;51.256;22.478;2023-03-01T10:21:20;3.70;1.00
26743;DHT22;14341;51.256;22.478;2023-03-01T10:24:24;3.60;1.00
26743;DHT22;14341;51.256;22.478;2023-03-01T10:27:36;3.80;1.00
26743;DHT22;14341;51.256;22.478;2023-03-01T10:30:44;3.90;1.00
26743;DHT22;14341;51.256;22.478;2023-03-01T10:33:48;3.90;1.00
26743;DHT22;14341;51.256;22.478;2023-03-01T10:36:57;4.00;1.00
26743;DHT22;14341;51.256;22.478;2023-03-01T10:40:07;4.20;1.00
26743;DHT22;14341;51.256;22.478;2023-03-01T10:43:11;4.30;1.00
26743;DHT22;14341;51.256;22.478;2023-03-01T10:46:29;4.50;1.00
26743;DHT22;14341;51.256;22.478;2023-03-01T10:49:34;4.60;1.00
26743;DHT22;14341;51.256;22.478;2023-03-01T10:52:40;4.90;1.00
26743;DHT22;14341;51.256;22.478;2023-03-01T10:55:44;4.80;1.00
26743;DHT22;14341;51.256;22.478;2023-03-01T10:58:58;5.00;1.00
26743;DHT22;14341;51.256;22.478;2023-03-01T11:02:15;5.00;1.00
26743;DHT22;14341;51.256;22.478;2023-03-01T11:05:26;5.50;99.90
26743;DHT22;14341;51.256;22.478;2023-03-01T11:08:40;5.70;99.90
26743;DHT22;14341;51.256;22.478;2023-03-01T11:11:43;5.70;99.90
26743;DHT22;14341;51.256;22.478;2023-03-01T11:14:49;5.70;99.90
26743;DHT22;14341;51.256;22.478;2023-03-01T11:17:56;6.20;99.90
26743;DHT22;14341;51.256;22.478;2023-03-01T11:21:15;6.40;99.90
26743;DHT22;14341;51.256;22.478;2023-03-01T11:24:19;7.00;99.90
26743;DHT22;14341;51.256;22.478;2023-03-01T11:27:25;6.90;99.90
26743;DHT22;14341;51.256;22.478;2023-03-01T11:30:31;7.10;99.90
26743;DHT22;14341;51.256;22.478;2023-03-01T11:33:41;7.60;99.90
26743;DHT22;14341;51.256;22.478;2023-03-01T11:36:51;8.00;99.90
26743;DHT22;14341;51.256;22.478;2023-03-01T11:40:01;8.40;99.90
26743;DHT22;14341;51.256;22.478;2023-03-01T11:43:14;8.40;99.90
26743;DHT22;14341;51.256;22.478;2023-03-01T11:46:48;8.40;99.90
26743;DHT22;14341;51.256;22.478;2023-03-01T11:50:15;8.90;99.90
26743;DHT22;14341;51.256;22.478;2023-03-01T11:53:47;9.20;99.90
26743;DHT22;14341;51.256;22.478;2023-03-01T11:56:55;9.70;99.90
26743;DHT22;14341;51.256;22.478;2023-03-01T12:00:15;9.90;99.90
26743;DHT22;14341;51.256;22.478;2023-03-01T12:07:00;10.60;99.90
26743;DHT22;14341;51.256;22.478;2023-03-01T12:10:19;10.30;99.90
26743;DHT22;14341;51.256;22.478;2023-03-01T12:13:46;9.70;99.90
26743;DHT22;14341;51.256;22.478;2023-03-01T12:20:30;10.10;99.90
26743;DHT22;14341;51.256;22.478;2023-03-01T12:24:07;9.40;99.90
26743;DHT22;14341;51.256;22.478;2023-03-01T12:27:27;9.80;99.90
26743;DHT22;14341;51.256;22.478;2023-03-01T12:30:42;9.30;99.90
26743;DHT22;14341;51.256;22.478;2023-03-01T12:33:56;9.40;99.90
26743;DHT22;14341;51.256;22.478;2023-03-01T12:37:25;9.60;99.90
26743;DHT22;14341;51.256;22.478;2023-03-01T12:41:01;9.40;99.90
26743;DHT22;14341;51.256;22.478;2023-03-01T12:47:51;9.90;99.90
26743;DHT22;14341;51.256;22.478;2023-03-01T12:51:01;10.10;99.90
26743;DHT22;14341;51.256;22.478;2023-03-01T12:54:14;9.50;99.90
26743;DHT22;14341;51.256;22.478;2023-03-01T12:57:24;9.60;99.90
26743;DHT22;14341;51.256;22.478;2023-03-01T13:00:32;9.30;99.90
26743;DHT22;14341;51.256;22.478;2023-03-01T13:04:03;9.00;99.90
26743;DHT22;14341;51.256;22.478;2023-03-01T13:07:18;8.90;99.90
26743;DHT22;14341;51.256;22.478;2023-03-01T13:10:27;8.70;99.90
26743;DHT22;14341;51.256;22.478;2023-03-01T13:13:34;8.60;99.90
26743;DHT22;14341;51.256;22.478;2023-03-01T13:16:41;8.40;99.90
26743;DHT22;14341;51.256;22.478;2023-03-01T13:19:56;8.10;99.90
26743;DHT22;14341;51.256;22.478;2023-03-01T13:23:07;8.20;99.90
26743;DHT22;14341;51.256;22.478;2023-03-01T13:26:16;7.80;99.90
26743;DHT22;14341;51.256;22.478;2023-03-01T13:29:27;8.00;99.90
26743;DHT22;14341;51.256;22.478;2023-03-01T13:32:31;8.00;99.90
26743;DHT22;14341;51.256;22.478;2023-03-01T13:35:50;8.00;99.90
26743;DHT22;14341;51.256;22.478;2023-03-01T13:38:56;8.00;99.90
26743;DHT22;14341;51.256;22.478;2023-03-01T13:42:00;8.30;99.90
26743;DHT22;14341;51.256;22.478;2023-03-01T13:45:21;8.40;99.90
26743;DHT22;14341;51.256;22.478;2023-03-01T13:48:28;8.70;99.90
26743;DHT22;14341;51.256;22.478;2023-03-01T13:51:32;8.60;99.90
26743;DHT22;14341;51.256;22.478;2023-03-01T13:54:38;9.00;99.90
26743;DHT22;14341;51.256;22.478;2023-03-01T13:57:44;9.20;99.90
26743;DHT22;14341;51.256;22.478;2023-03-01T14:00:55;9.20;99.90
26743;DHT22;14341;51.256;22.478;2023-03-01T14:04:00;8.40;99.90
26743;DHT22;14341;51.256;22.478;2023-03-01T14:07:11;8.60;99.90
26743;DHT22;14341;51.256;22.478;2023-03-01T14:10:15;9.30;99.90
26743;DHT22;14341;51.256;22.478;2023-03-01T14:13:29;9.40;99.90
26743;DHT22;14341;51.256;22.478;2023-03-01T14:16:42;9.20;99.90
26743;DHT22;14341;51.256;22.478;2023-03-01T14:19:55;9.20;99.90
26743;DHT22;14341;51.256;22.478;2023-03-01T14:23:01;9.00;99.90
26743;DHT22;14341;51.256;22.478;2023-03-01T14:26:05;8.90;99.90
26743;DHT22;14341;51.256;22.478;2023-03-01T14:29:25;8.70;99.90
26743;DHT22;14341;51.256;22.478;2023-03-01T14:32:31;8.60;99.90
26743;DHT22;14341;51.256;22.478;2023-03-01T14:35:36;8.30;99.90
26743;DHT22;14341;51.256;22.478;2023-03-01T14:38:42;8.20;99.90
26743;DHT22;14341;51.256;22.478;2023-03-01T14:41:46;7.90;99.90
26743;DHT22;14341;51.256;22.478;2023-03-01T14:44:51;7.70;99.90
26743;DHT22;14341;51.256;22.478;2023-03-01T14:47:59;7.70;99.90
26743;DHT22;14341;51.256;22.478;2023-03-01T14:51:05;7.40;99.90
26743;DHT22;14341;51.256;22.478;2023-03-01T14:54:21;7.20;99.90
26743;DHT22;14341;51.256;22.478;2023-03-01T14:57:26;7.00;99.90
26743;DHT22;14341;51.256;22.478;2023-03-01T15:00:31;6.60;99.90
26743;DHT22;14341;51.256;22.478;2023-03-01T15:03:39;6.40;99.90
26743;DHT22;14341;51.256;22.478;2023-03-01T15:06:44;6.10;99.90
26743;DHT22;14341;51.256;22.478;2023-03-01T15:09:49;6.10;99.90
26743;DHT22;14341;51.256;22.478;2023-03-01T15:12:52;5.90;99.90
26743;DHT22;14341;51.256;22.478;2023-03-01T15:16:09;5.90;1.00
26743;DHT22;14341;51.256;22.478;2023-03-01T15:19:18;5.70;1.00
26743;DHT22;14341;51.256;22.478;2023-03-01T15:22:23;5.50;1.00
26743;DHT22;14341;51.256;22.478;2023-03-01T15:25:30;5.20;1.00
26743;DHT22;14341;51.256;22.478;2023-03-01T15:28:37;4.80;1.00
26743;DHT22;14341;51.256;22.478;2023-03-01T15:31:42;4.60;1.00
26743;DHT22;14341;51.256;22.478;2023-03-01T15:34:48;4.30;1.00
26743;DHT22;14341;51.256;22.478;2023-03-01T15:37:51;4.00;1.00
26743;DHT22;14341;51.256;22.478;2023-03-01T15:40:55;3.80;1.00
26743;DHT22;14341;51.256;22.478;2023-03-01T15:44:14;3.50;1.00
26743;DHT22;14341;51.256;22.478;2023-03-01T15:47:29;3.30;1.00
26743;DHT22;14341;51.256;22.478;2023-03-01T15:50:36;3.10;1.00
26743;DHT22;14341;51.256;22.478;2023-03-01T15:53:43;2.90;10.00
26743;DHT22;14341;51.256;22.478;2023-03-01T15:56:56;2.70;16.60
26743;DHT22;14341;51.256;22.478;2023-03-01T15:59:59;2.50;28.00
26743;DHT22;14341;51.256;22.478;2023-03-01T16:03:06;2.30;37.90
26743;DHT22;14341;51.256;22.478;2023-03-01T16:06:12;2.10;45.80
26743;DHT22;14341;51.256;22.478;2023-03-01T16:09:16;2.00;51.10
26743;DHT22;14341;51.256;22.478;2023-03-01T16:12:20;1.90;55.00
26743;DHT22;14341;51.256;22.478;2023-03-01T16:15:25;1.80;55.60
26743;DHT22;14341;51.256;22.478;2023-03-01T16:18:34;1.80;48.60
26743;DHT22;14341;51.256;22.478;2023-03-01T16:21:38;1.60;52.50
26743;DHT22;14341;51.256;22.478;2023-03-01T16:24:42;1.50;59.30
26743;DHT22;14341;51.256;22.478;2023-03-01T16:27:46;1.40;64.10
26743;DHT22;14341;51.256;22.478;2023-03-01T16:30:55;1.20;69.40
26743;DHT22;14341;51.256;22.478;2023-03-01T16:33:59;1.10;75.20
26743;DHT22;14341;51.256;22.478;2023-03-01T16:37:04;0.90;76.90
26743;DHT22;14341;51.256;22.478;2023-03-01T16:40:16;0.80;81.10
26743;DHT22;14341;51.256;22.478;2023-03-01T16:43:21;0.70;82.90
26743;DHT22;14341;51.256;22.478;2023-03-01T16:46:25;0.50;85.30
26743;DHT22;14341;51.256;22.478;2023-03-01T16:49:29;0.40;91.60
26743;DHT22;14341;51.256;22.478;2023-03-01T16:52:34;0.30;95.00
26743;DHT22;14341;51.256;22.478;2023-03-01T16:55:37;0.20;95.90
26743;DHT22;14341;51.256;22.478;2023-03-01T16:58:47;0.10;98.60
26743;DHT22;14341;51.256;22.478;2023-03-01T17:01:50;-0.10;99.90
26743;DHT22;14341;51.256;22.478;2023-03-01T17:04:55;-0.10;99.90
26743;DHT22;14341;51.256;22.478;2023-03-01T17:08:00;-0.20;99.90
26743;DHT22;14341;51.256;22.478;2023-03-01T17:11:05;-0.40;99.90
26743;DHT22;14341;51.256;22.478;2023-03-01T17:14:09;-0.40;99.90
26743;DHT22;14341;51.256;22.478;2023-03-01T17:17:13;-0.40;99.90
26743;DHT22;14341;51.256;22.478;2023-03-01T17:20:16;-0.40;99.90
26743;DHT22;14341;51.256;22.478;2023-03-01T17:23:21;-0.40;99.90
26743;DHT22;14341;51.256;22.478;2023-03-01T17:26:25;-0.40;99.90
26743;DHT22;14341;51.256;22.478;2023-03-01T17:29:30;-0.40;99.90
26743;DHT22;14341;51.256;22.478;2023-03-01T17:32:33;-0.50;99.90
26743;DHT22;14341;51.256;22.478;2023-03-01T17:35:37;-0.50;99.90
26743;DHT22;14341;51.256;22.478;2023-03-01T17:38:43;-0.60;99.90
26743;DHT22;14341;51.256;22.478;2023-03-01T17:41:48;-0.70;99.90
26743;DHT22;14341;51.256;22.478;2023-03-01T17:44:51;-0.80;99.90
26743;DHT22;14341;51.256;22.478;2023-03-01T17:47:54;-0.70;99.90
26743;DHT22;14341;51.256;22.478;2023-03-01T17:50:58;-0.60;99.90
26743;DHT22;14341;51.256;22.478;2023-03-01T17:54:05;-0.60;99.90
26743;DHT22;14341;51.256;22.478;2023-03-01T17:57:09;-0.50;99.90
26743;DHT22;14341;51.256;22.478;2023-03-01T18:00:14;-0.50;99.90
26743;DHT22;14341;51.256;22.478;2023-03-01T18:03:18;-0.60;99.90
26743;DHT22;14341;51.256;22.478;2023-03-01T18:06:24;-0.70;99.90
26743;DHT22;14341;51.256;22.478;2023-03-01T18:09:29;-0.60;99.90
26743;DHT22;14341;51.256;22.478;2023-03-01T18:12:32;-0.60;99.90
26743;DHT22;14341;51.256;22.478;2023-03-01T18:15:36;-0.70;99.90
26743;DHT22;14341;51.256;22.478;2023-03-01T18:18:41;-0.90;99.90
26743;DHT22;14341;51.256;22.478;2023-03-01T18:21:46;-1.00;99.90
26743;DHT22;14341;51.256;22.478;2023-03-01T18:24:51;-1.10;99.90
26743;DHT22;14341;51.256;22.478;2023-03-01T18:27:55;-1.30;99.90
26743;DHT22;14341;51.256;22.478;2023-03-01T18:30:58;-1.30;99.90
26743;DHT22;14341;51.256;22.478;2023-03-01T18:34:03;-1.40;99.90
26743;DHT22;14341;51.256;22.478;2023-03-01T18:37:07;-1.40;99.90
26743;DHT22;14341;51.256;22.478;2023-03-01T18:40:12;-1.50;99.90
26743;DHT22;14341;51.256;22.478;2023-03-01T18:43:15;-1.50;99.90
26743;DHT22;14341;51.256;22.478;2023-03-01T18:46:19;-1.50;99.90
26743;DHT22;14341;51.256;22.478;2023-03-01T18:49:23;-1.50;99.90
26743;DHT22;14341;51.256;22.478;2023-03-01T18:52:27;-1.50;99.90
26743;DHT22;14341;51.256;22.478;2023-03-01T18:55:37;-1.50;99.90
26743;DHT22;14341;51.256;22.478;2023-03-01T18:58:41;-1.50;99.90
26743;DHT22;14341;51.256;22.478;2023-03-01T19:06:02;-1.70;99.90
26743;DHT22;14341;51.256;22.478;2023-03-01T19:09:07;-1.80;99.90
26743;DHT22;14341;51.256;22.478;2023-03-01T19:12:13;-1.80;99.90
26743;DHT22;14341;51.256;22.478;2023-03-01T19:15:17;-1.80;99.90
26743;DHT22;14341;51.256;22.478;2023-03-01T19:18:20;-1.90;99.90
26743;DHT22;14341;51.256;22.478;2023-03-01T19:21:24;-1.90;99.90
26743;DHT22;14341;51.256;22.478;2023-03-01T19:24:28;-1.80;99.90
26743;DHT22;14341;51.256;22.478;2023-03-01T19:27:33;-1.80;99.90
26743;DHT22;14341;51.256;22.478;2023-03-01T19:30:37;-1.80;99.90
26743;DHT22;14341;51.256;22.478;2023-03-01T19:33:40;-1.90;99.90
26743;DHT22;14341;51.256;22.478;2023-03-01T19:36:44;-1.90;99.90
26743;DHT22;14341;51.256;22.478;2023-03-01T19:39:49;-1.90;99.90
26743;DHT22;14341;51.256;22.478;2023-03-01T19:42:54;-2.00;99.90
26743;DHT22;14341;51.256;22.478;2023-03-01T19:45:57;-2.00;99.90
26743;DHT22;14341;51.256;22.478;2023-03-01T19:49:04;-2.00;99.90